Decoded Metar for KLAW (LAWTON in OK, USA) (IATA:LAW) | Meteo·Mobile Aviation Weather
aviador You're here:

KLAW Decoded Metar

LAWTON in OK, USA
Report Time2019-02-16 06:53:00
UTC Time2019-02-16 07:36:40
Flight Rules mvfr MVFR
Wind030° at 08 kt
W.Decomp.*RWY 35: 6.6 kt HW 4.5 kt RCW
W.Rank030° ranks 10
Current wind is below 030° avg. (9.7)
Visibility9999 m
Phenomena:N/A
Clouds:Overcast 011 Hf
Expected CloudBase > 1,200 ft AGL from Temp-Dew spread
Ceiling1,100 ft
Temp-2°C (ISA -15)
Dew Point-5°C (80% RH)
AAT-7.5°C
QNH1017 hPa
Density Alt-781 ft
Elevation1,106 ft
Report Wrong Elevation
Raw Report
KLAW 160653Z AUTO 03008KT 10SM OVC011 M02/M05 A3002 RMK AO2 SLP173
T10221050=

Extra information for KLAW:More info

Metar Taf Metar & Taf Last 4 Metars F.Rules Stats Wind Profile Meteogram Temp Stats Airport Information Weather charts Add Link Nearby VenuesMetar ALERT Operation Metar Decoded Social comments

AIRNAV info for KLAW